sensor_id;sensor_type;location;lat;lon;timestamp;P1;durP1;ratioP1;P2;durP2;ratioP2
13234;SDS011;6683;48.506;9.050;2023-11-21T00:01:57;2.37;;;0.90;;
13234;SDS011;6683;48.506;9.050;2023-11-21T00:04:59;2.03;;;0.87;;
13234;SDS011;6683;48.506;9.050;2023-11-21T00:08:03;2.90;;;1.13;;
13234;SDS011;6683;48.506;9.050;2023-11-21T00:11:08;2.30;;;1.20;;
13234;SDS011;6683;48.506;9.050;2023-11-21T00:14:11;1.40;;;1.10;;
13234;SDS011;6683;48.506;9.050;2023-11-21T00:17:15;3.00;;;1.10;;
13234;SDS011;6683;48.506;9.050;2023-11-21T00:20:17;2.37;;;1.27;;
13234;SDS011;6683;48.506;9.050;2023-11-21T00:23:20;1.83;;;0.90;;
13234;SDS011;6683;48.506;9.050;2023-11-21T00:26:23;2.30;;;1.00;;
13234;SDS011;6683;48.506;9.050;2023-11-21T00:29:25;1.70;;;0.80;;
13234;SDS011;6683;48.506;9.050;2023-11-21T00:32:28;2.97;;;0.97;;
13234;SDS011;6683;48.506;9.050;2023-11-21T00:35:30;1.97;;;0.93;;
13234;SDS011;6683;48.506;9.050;2023-11-21T00:38:32;1.93;;;1.20;;
13234;SDS011;6683;48.506;9.050;2023-11-21T00:41:35;1.30;;;0.80;;
13234;SDS011;6683;48.506;9.050;2023-11-21T00:44:37;1.03;;;0.77;;
13234;SDS011;6683;48.506;9.050;2023-11-21T00:47:40;1.50;;;0.90;;
13234;SDS011;6683;48.506;9.050;2023-11-21T00:50:43;1.40;;;0.87;;
13234;SDS011;6683;48.506;9.050;2023-11-21T00:53:46;1.47;;;0.80;;
13234;SDS011;6683;48.506;9.050;2023-11-21T00:56:51;3.23;;;1.30;;
13234;SDS011;6683;48.506;9.050;2023-11-21T00:59:54;2.13;;;1.00;;
13234;SDS011;6683;48.506;9.050;2023-11-21T01:02:59;1.40;;;0.80;;
13234;SDS011;6683;48.506;9.050;2023-11-21T01:06:04;2.57;;;0.90;;
13234;SDS011;6683;48.506;9.050;2023-11-21T01:09:09;1.53;;;0.90;;
13234;SDS011;6683;48.506;9.050;2023-11-21T01:12:14;1.77;;;0.90;;
13234;SDS011;6683;48.506;9.050;2023-11-21T01:15:17;1.07;;;0.70;;
13234;SDS011;6683;48.506;9.050;2023-11-21T01:18:19;2.00;;;0.90;;
13234;SDS011;6683;48.506;9.050;2023-11-21T01:21:22;2.50;;;0.80;;
13234;SDS011;6683;48.506;9.050;2023-11-21T01:24:24;2.27;;;1.03;;
13234;SDS011;6683;48.506;9.050;2023-11-21T01:27:27;1.30;;;0.80;;
13234;SDS011;6683;48.506;9.050;2023-11-21T01:30:30;1.13;;;0.67;;
13234;SDS011;6683;48.506;9.050;2023-11-21T01:33:32;0.90;;;0.70;;
13234;SDS011;6683;48.506;9.050;2023-11-21T01:36:35;1.67;;;0.70;;
13234;SDS011;6683;48.506;9.050;2023-11-21T01:39:37;1.47;;;0.50;;
13234;SDS011;6683;48.506;9.050;2023-11-21T01:42:41;0.80;;;0.50;;
13234;SDS011;6683;48.506;9.050;2023-11-21T01:45:46;1.27;;;0.50;;
13234;SDS011;6683;48.506;9.050;2023-11-21T01:48:48;2.17;;;0.50;;
13234;SDS011;6683;48.506;9.050;2023-11-21T01:51:51;1.43;;;0.50;;
13234;SDS011;6683;48.506;9.050;2023-11-21T01:54:54;1.57;;;0.43;;
13234;SDS011;6683;48.506;9.050;2023-11-21T01:57:57;1.10;;;0.50;;
13234;SDS011;6683;48.506;9.050;2023-11-21T02:00:59;0.60;;;0.37;;
13234;SDS011;6683;48.506;9.050;2023-11-21T02:04:02;1.37;;;0.40;;
13234;SDS011;6683;48.506;9.050;2023-11-21T02:07:05;0.50;;;0.30;;
13234;SDS011;6683;48.506;9.050;2023-11-21T02:10:07;0.30;;;0.30;;
13234;SDS011;6683;48.506;9.050;2023-11-21T02:13:11;0.80;;;0.40;;
13234;SDS011;6683;48.506;9.050;2023-11-21T02:16:13;0.80;;;0.40;;
13234;SDS011;6683;48.506;9.050;2023-11-21T02:19:17;0.67;;;0.43;;
13234;SDS011;6683;48.506;9.050;2023-11-21T02:22:23;0.20;;;0.20;;
13234;SDS011;6683;48.506;9.050;2023-11-21T02:25:29;0.93;;;0.47;;
13234;SDS011;6683;48.506;9.050;2023-11-21T02:28:33;0.40;;;0.37;;
13234;SDS011;6683;48.506;9.050;2023-11-21T02:31:35;1.33;;;0.40;;
13234;SDS011;6683;48.506;9.050;2023-11-21T02:34:45;0.43;;;0.30;;
13234;SDS011;6683;48.506;9.050;2023-11-21T02:37:48;0.43;;;0.40;;
13234;SDS011;6683;48.506;9.050;2023-11-21T02:40:51;1.30;;;0.40;;
13234;SDS011;6683;48.506;9.050;2023-11-21T02:43:54;0.47;;;0.40;;
13234;SDS011;6683;48.506;9.050;2023-11-21T02:46:56;1.17;;;0.40;;
13234;SDS011;6683;48.506;9.050;2023-11-21T02:49:58;0.87;;;0.50;;
13234;SDS011;6683;48.506;9.050;2023-11-21T02:53:01;1.33;;;0.50;;
13234;SDS011;6683;48.506;9.050;2023-11-21T02:56:07;0.67;;;0.30;;
13234;SDS011;6683;48.506;9.050;2023-11-21T02:59:10;1.03;;;0.43;;
13234;SDS011;6683;48.506;9.050;2023-11-21T03:02:12;0.40;;;0.40;;
13234;SDS011;6683;48.506;9.050;2023-11-21T03:05:15;0.87;;;0.60;;
13234;SDS011;6683;48.506;9.050;2023-11-21T03:08:18;2.43;;;1.10;;
13234;SDS011;6683;48.506;9.050;2023-11-21T03:11:21;1.90;;;0.87;;
13234;SDS011;6683;48.506;9.050;2023-11-21T03:14:23;1.67;;;0.90;;
13234;SDS011;6683;48.506;9.050;2023-11-21T03:17:25;1.20;;;0.70;;
13234;SDS011;6683;48.506;9.050;2023-11-21T03:20:29;1.40;;;0.90;;
13234;SDS011;6683;48.506;9.050;2023-11-21T03:23:31;1.23;;;0.70;;
13234;SDS011;6683;48.506;9.050;2023-11-21T03:26:34;1.67;;;0.60;;
13234;SDS011;6683;48.506;9.050;2023-11-21T03:29:37;1.47;;;0.70;;
13234;SDS011;6683;48.506;9.050;2023-11-21T03:32:40;0.83;;;0.40;;
13234;SDS011;6683;48.506;9.050;2023-11-21T03:35:42;0.90;;;0.43;;
13234;SDS011;6683;48.506;9.050;2023-11-21T03:38:44;0.80;;;0.50;;
13234;SDS011;6683;48.506;9.050;2023-11-21T03:41:48;0.70;;;0.43;;
13234;SDS011;6683;48.506;9.050;2023-11-21T03:44:51;0.77;;;0.60;;
13234;SDS011;6683;48.506;9.050;2023-11-21T03:47:53;0.50;;;0.40;;
13234;SDS011;6683;48.506;9.050;2023-11-21T03:50:56;0.97;;;0.40;;
13234;SDS011;6683;48.506;9.050;2023-11-21T03:53:58;0.40;;;0.30;;
13234;SDS011;6683;48.506;9.050;2023-11-21T03:57:01;0.90;;;0.47;;
13234;SDS011;6683;48.506;9.050;2023-11-21T04:00:04;0.30;;;0.30;;
13234;SDS011;6683;48.506;9.050;2023-11-21T04:03:10;1.33;;;0.33;;
13234;SDS011;6683;48.506;9.050;2023-11-21T04:06:13;0.30;;;0.30;;
13234;SDS011;6683;48.506;9.050;2023-11-21T04:09:17;0.67;;;0.30;;
13234;SDS011;6683;48.506;9.050;2023-11-21T04:12:21;0.30;;;0.20;;
13234;SDS011;6683;48.506;9.050;2023-11-21T04:15:23;0.40;;;0.23;;
13234;SDS011;6683;48.506;9.050;2023-11-21T04:18:25;0.33;;;0.20;;
13234;SDS011;6683;48.506;9.050;2023-11-21T04:21:27;0.30;;;0.20;;
13234;SDS011;6683;48.506;9.050;2023-11-21T04:24:29;0.70;;;0.40;;
13234;SDS011;6683;48.506;9.050;2023-11-21T04:27:33;0.50;;;0.30;;
13234;SDS011;6683;48.506;9.050;2023-11-21T04:30:35;0.77;;;0.20;;
13234;SDS011;6683;48.506;9.050;2023-11-21T04:33:39;0.73;;;0.20;;
13234;SDS011;6683;48.506;9.050;2023-11-21T04:36:41;0.30;;;0.20;;
13234;SDS011;6683;48.506;9.050;2023-11-21T04:39:44;0.20;;;0.10;;
13234;SDS011;6683;48.506;9.050;2023-11-21T04:42:47;0.70;;;0.27;;
13234;SDS011;6683;48.506;9.050;2023-11-21T04:45:49;0.40;;;0.20;;
13234;SDS011;6683;48.506;9.050;2023-11-21T04:48:51;0.20;;;0.20;;
13234;SDS011;6683;48.506;9.050;2023-11-21T04:51:53;0.50;;;0.20;;
13234;SDS011;6683;48.506;9.050;2023-11-21T04:54:56;0.40;;;0.40;;
13234;SDS011;6683;48.506;9.050;2023-11-21T04:58:00;0.50;;;0.30;;
13234;SDS011;6683;48.506;9.050;2023-11-21T05:01:04;0.87;;;0.30;;
13234;SDS011;6683;48.506;9.050;2023-11-21T05:04:08;1.03;;;0.40;;
13234;SDS011;6683;48.506;9.050;2023-11-21T05:07:10;0.50;;;0.30;;
13234;SDS011;6683;48.506;9.050;2023-11-21T05:10:13;0.53;;;0.33;;
13234;SDS011;6683;48.506;9.050;2023-11-21T05:13:16;0.70;;;0.33;;
13234;SDS011;6683;48.506;9.050;2023-11-21T05:16:19;0.50;;;0.40;;
13234;SDS011;6683;48.506;9.050;2023-11-21T05:19:21;0.30;;;0.30;;
13234;SDS011;6683;48.506;9.050;2023-11-21T05:22:23;0.50;;;0.40;;
13234;SDS011;6683;48.506;9.050;2023-11-21T05:25:26;0.43;;;0.43;;
13234;SDS011;6683;48.506;9.050;2023-11-21T05:28:29;1.00;;;0.60;;
13234;SDS011;6683;48.506;9.050;2023-11-21T05:31:31;1.00;;;0.50;;
13234;SDS011;6683;48.506;9.050;2023-11-21T05:34:33;0.47;;;0.47;;
13234;SDS011;6683;48.506;9.050;2023-11-21T05:37:35;1.33;;;0.50;;
13234;SDS011;6683;48.506;9.050;2023-11-21T05:40:38;1.33;;;0.40;;
13234;SDS011;6683;48.506;9.050;2023-11-21T05:43:42;1.23;;;0.60;;
13234;SDS011;6683;48.506;9.050;2023-11-21T05:46:44;0.70;;;0.40;;
13234;SDS011;6683;48.506;9.050;2023-11-21T05:49:46;0.77;;;0.50;;
13234;SDS011;6683;48.506;9.050;2023-11-21T05:52:50;1.83;;;0.60;;
13234;SDS011;6683;48.506;9.050;2023-11-21T05:55:52;0.90;;;0.73;;
13234;SDS011;6683;48.506;9.050;2023-11-21T05:58:56;1.00;;;0.83;;
13234;SDS011;6683;48.506;9.050;2023-11-21T06:01:58;1.40;;;1.00;;
13234;SDS011;6683;48.506;9.050;2023-11-21T06:05:00;1.87;;;0.90;;
13234;SDS011;6683;48.506;9.050;2023-11-21T06:08:04;1.67;;;1.40;;
13234;SDS011;6683;48.506;9.050;2023-11-21T06:11:07;1.50;;;1.00;;
13234;SDS011;6683;48.506;9.050;2023-11-21T06:14:13;3.03;;;1.00;;
13234;SDS011;6683;48.506;9.050;2023-11-21T06:17:15;0.83;;;0.80;;
13234;SDS011;6683;48.506;9.050;2023-11-21T06:20:18;0.87;;;0.80;;
13234;SDS011;6683;48.506;9.050;2023-11-21T06:23:20;2.03;;;0.80;;
13234;SDS011;6683;48.506;9.050;2023-11-21T06:26:23;1.10;;;0.70;;
13234;SDS011;6683;48.506;9.050;2023-11-21T06:29:27;1.17;;;0.80;;
13234;SDS011;6683;48.506;9.050;2023-11-21T06:32:29;2.13;;;0.73;;
13234;SDS011;6683;48.506;9.050;2023-11-21T06:35:31;1.90;;;0.50;;
13234;SDS011;6683;48.506;9.050;2023-11-21T06:38:34;2.53;;;0.60;;
13234;SDS011;6683;48.506;9.050;2023-11-21T06:41:37;1.70;;;0.63;;
13234;SDS011;6683;48.506;9.050;2023-11-21T06:44:41;3.23;;;0.70;;
13234;SDS011;6683;48.506;9.050;2023-11-21T06:47:44;0.60;;;0.50;;
13234;SDS011;6683;48.506;9.050;2023-11-21T06:50:46;2.37;;;0.77;;
13234;SDS011;6683;48.506;9.050;2023-11-21T06:53:48;2.03;;;0.87;;
13234;SDS011;6683;48.506;9.050;2023-11-21T06:56:50;1.07;;;0.70;;
13234;SDS011;6683;48.506;9.050;2023-11-21T06:59:54;1.40;;;0.73;;
13234;SDS011;6683;48.506;9.050;2023-11-21T07:02:57;1.50;;;0.90;;
13234;SDS011;6683;48.506;9.050;2023-11-21T07:05:59;0.80;;;0.70;;
13234;SDS011;6683;48.506;9.050;2023-11-21T07:09:01;2.10;;;0.70;;
13234;SDS011;6683;48.506;9.050;2023-11-21T07:12:04;1.60;;;0.93;;
13234;SDS011;6683;48.506;9.050;2023-11-21T07:15:09;2.43;;;0.67;;
13234;SDS011;6683;48.506;9.050;2023-11-21T07:18:11;1.20;;;0.83;;
13234;SDS011;6683;48.506;9.050;2023-11-21T07:21:13;2.60;;;0.83;;
13234;SDS011;6683;48.506;9.050;2023-11-21T07:24:16;0.70;;;0.57;;
13234;SDS011;6683;48.506;9.050;2023-11-21T07:27:18;1.00;;;0.67;;
13234;SDS011;6683;48.506;9.050;2023-11-21T07:30:22;1.13;;;0.83;;
13234;SDS011;6683;48.506;9.050;2023-11-21T07:33:24;1.00;;;0.80;;
13234;SDS011;6683;48.506;9.050;2023-11-21T07:36:26;1.40;;;0.80;;
13234;SDS011;6683;48.506;9.050;2023-11-21T07:39:28;1.27;;;0.70;;
13234;SDS011;6683;48.506;9.050;2023-11-21T07:42:31;0.80;;;0.70;;
13234;SDS011;6683;48.506;9.050;2023-11-21T07:45:35;1.50;;;0.80;;
13234;SDS011;6683;48.506;9.050;2023-11-21T07:48:37;1.67;;;1.07;;
13234;SDS011;6683;48.506;9.050;2023-11-21T07:51:40;1.07;;;0.77;;
13234;SDS011;6683;48.506;9.050;2023-11-21T07:54:42;2.23;;;1.13;;
13234;SDS011;6683;48.506;9.050;2023-11-21T07:57:44;1.50;;;1.20;;
13234;SDS011;6683;48.506;9.050;2023-11-21T08:00:47;2.37;;;1.10;;
13234;SDS011;6683;48.506;9.050;2023-11-21T08:03:50;1.67;;;1.23;;
13234;SDS011;6683;48.506;9.050;2023-11-21T08:06:52;1.10;;;0.90;;
13234;SDS011;6683;48.506;9.050;2023-11-21T08:09:55;0.70;;;0.70;;
13234;SDS011;6683;48.506;9.050;2023-11-21T08:12:57;1.60;;;1.00;;
13234;SDS011;6683;48.506;9.050;2023-11-21T08:16:01;1.00;;;0.73;;
13234;SDS011;6683;48.506;9.050;2023-11-21T08:19:05;2.40;;;1.30;;
13234;SDS011;6683;48.506;9.050;2023-11-21T08:22:08;1.73;;;1.27;;
13234;SDS011;6683;48.506;9.050;2023-11-21T08:25:11;1.90;;;1.27;;
13234;SDS011;6683;48.506;9.050;2023-11-21T08:28:13;1.83;;;1.13;;
13234;SDS011;6683;48.506;9.050;2023-11-21T08:31:22;2.33;;;1.00;;
13234;SDS011;6683;48.506;9.050;2023-11-21T08:34:26;1.20;;;0.83;;
13234;SDS011;6683;48.506;9.050;2023-11-21T08:37:28;1.27;;;0.80;;
13234;SDS011;6683;48.506;9.050;2023-11-21T08:40:34;1.07;;;0.90;;
13234;SDS011;6683;48.506;9.050;2023-11-21T08:43:36;2.07;;;1.80;;
13234;SDS011;6683;48.506;9.050;2023-11-21T08:46:41;2.80;;;1.50;;
13234;SDS011;6683;48.506;9.050;2023-11-21T08:49:44;1.03;;;0.90;;
13234;SDS011;6683;48.506;9.050;2023-11-21T08:52:47;1.30;;;1.03;;
13234;SDS011;6683;48.506;9.050;2023-11-21T08:55:49;1.40;;;0.93;;
13234;SDS011;6683;48.506;9.050;2023-11-21T08:58:53;0.93;;;0.70;;
13234;SDS011;6683;48.506;9.050;2023-11-21T09:01:57;0.87;;;0.67;;
13234;SDS011;6683;48.506;9.050;2023-11-21T09:05:00;1.23;;;0.70;;
13234;SDS011;6683;48.506;9.050;2023-11-21T09:08:03;0.80;;;0.80;;
13234;SDS011;6683;48.506;9.050;2023-11-21T09:11:06;0.83;;;0.70;;
13234;SDS011;6683;48.506;9.050;2023-11-21T09:14:09;0.50;;;0.50;;
13234;SDS011;6683;48.506;9.050;2023-11-21T09:17:14;0.60;;;0.60;;
13234;SDS011;6683;48.506;9.050;2023-11-21T09:20:16;0.60;;;0.50;;
13234;SDS011;6683;48.506;9.050;2023-11-21T09:23:18;0.60;;;0.60;;
13234;SDS011;6683;48.506;9.050;2023-11-21T09:26:20;0.73;;;0.73;;
13234;SDS011;6683;48.506;9.050;2023-11-21T09:29:22;1.50;;;1.30;;
13234;SDS011;6683;48.506;9.050;2023-11-21T09:32:26;1.37;;;1.27;;
13234;SDS011;6683;48.506;9.050;2023-11-21T09:35:28;1.43;;;0.80;;
13234;SDS011;6683;48.506;9.050;2023-11-21T09:38:30;1.20;;;0.90;;
13234;SDS011;6683;48.506;9.050;2023-11-21T09:41:33;2.30;;;1.37;;
13234;SDS011;6683;48.506;9.050;2023-11-21T09:44:47;1.87;;;1.30;;
13234;SDS011;6683;48.506;9.050;2023-11-21T09:48:02;1.50;;;1.20;;
13234;SDS011;6683;48.506;9.050;2023-11-21T09:51:06;1.10;;;0.70;;
13234;SDS011;6683;48.506;9.050;2023-11-21T09:54:11;1.27;;;1.10;;
13234;SDS011;6683;48.506;9.050;2023-11-21T09:57:16;1.20;;;0.93;;
13234;SDS011;6683;48.506;9.050;2023-11-21T10:00:19;1.33;;;0.90;;
13234;SDS011;6683;48.506;9.050;2023-11-21T10:03:25;2.00;;;1.70;;
13234;SDS011;6683;48.506;9.050;2023-11-21T10:06:28;1.03;;;1.00;;
13234;SDS011;6683;48.506;9.050;2023-11-21T10:09:31;0.60;;;0.60;;
13234;SDS011;6683;48.506;9.050;2023-11-21T10:12:33;0.57;;;0.57;;
13234;SDS011;6683;48.506;9.050;2023-11-21T10:15:38;0.80;;;0.80;;
13234;SDS011;6683;48.506;9.050;2023-11-21T10:18:46;2.80;;;1.67;;
13234;SDS011;6683;48.506;9.050;2023-11-21T10:21:50;0.77;;;0.73;;
13234;SDS011;6683;48.506;9.050;2023-11-21T10:24:54;0.80;;;0.80;;
13234;SDS011;6683;48.506;9.050;2023-11-21T10:27:57;0.60;;;0.60;;
13234;SDS011;6683;48.506;9.050;2023-11-21T10:31:01;1.43;;;0.70;;
13234;SDS011;6683;48.506;9.050;2023-11-21T10:34:13;0.60;;;0.60;;
13234;SDS011;6683;48.506;9.050;2023-11-21T10:37:17;0.90;;;0.50;;
13234;SDS011;6683;48.506;9.050;2023-11-21T10:40:20;1.70;;;0.60;;
13234;SDS011;6683;48.506;9.050;2023-11-21T10:43:24;2.10;;;1.70;;
13234;SDS011;6683;48.506;9.050;2023-11-21T10:46:27;1.97;;;1.10;;
13234;SDS011;6683;48.506;9.050;2023-11-21T10:49:32;1.70;;;1.60;;
13234;SDS011;6683;48.506;9.050;2023-11-21T10:52:34;1.33;;;1.00;;
13234;SDS011;6683;48.506;9.050;2023-11-21T10:55:36;1.07;;;0.93;;
13234;SDS011;6683;48.506;9.050;2023-11-21T10:58:38;0.60;;;0.60;;
13234;SDS011;6683;48.506;9.050;2023-11-21T11:01:41;2.67;;;1.10;;
13234;SDS011;6683;48.506;9.050;2023-11-21T11:04:47;1.33;;;0.70;;
13234;SDS011;6683;48.506;9.050;2023-11-21T11:07:50;0.57;;;0.57;;
13234;SDS011;6683;48.506;9.050;2023-11-21T11:10:59;1.30;;;0.70;;
13234;SDS011;6683;48.506;9.050;2023-11-21T11:14:02;7.53;;;1.40;;
13234;SDS011;6683;48.506;9.050;2023-11-21T11:17:04;1.10;;;1.00;;
13234;SDS011;6683;48.506;9.050;2023-11-21T11:20:11;2.30;;;0.80;;
13234;SDS011;6683;48.506;9.050;2023-11-21T11:23:25;1.53;;;0.60;;
13234;SDS011;6683;48.506;9.050;2023-11-21T11:26:43;0.63;;;0.63;;
13234;SDS011;6683;48.506;9.050;2023-11-21T11:29:55;0.60;;;0.50;;
13234;SDS011;6683;48.506;9.050;2023-11-21T11:33:11;1.30;;;0.60;;
13234;SDS011;6683;48.506;9.050;2023-11-21T11:36:29;0.63;;;0.50;;
13234;SDS011;6683;48.506;9.050;2023-11-21T11:39:40;0.60;;;0.37;;
13234;SDS011;6683;48.506;9.050;2023-11-21T11:42:54;0.70;;;0.53;;
13234;SDS011;6683;48.506;9.050;2023-11-21T11:45:59;0.50;;;0.50;;
13234;SDS011;6683;48.506;9.050;2023-11-21T11:49:04;0.60;;;0.50;;
13234;SDS011;6683;48.506;9.050;2023-11-21T11:55:41;1.10;;;0.60;;
13234;SDS011;6683;48.506;9.050;2023-11-21T11:58:43;0.80;;;0.60;;
13234;SDS011;6683;48.506;9.050;2023-11-21T12:01:46;0.97;;;0.60;;
13234;SDS011;6683;48.506;9.050;2023-11-21T12:04:55;0.90;;;0.90;;
13234;SDS011;6683;48.506;9.050;2023-11-21T12:07:59;1.23;;;0.50;;
13234;SDS011;6683;48.506;9.050;2023-11-21T12:11:03;0.97;;;0.50;;
13234;SDS011;6683;48.506;9.050;2023-11-21T12:14:06;0.70;;;0.50;;
13234;SDS011;6683;48.506;9.050;2023-11-21T12:17:09;0.70;;;0.47;;
13234;SDS011;6683;48.506;9.050;2023-11-21T12:20:11;0.57;;;0.50;;
13234;SDS011;6683;48.506;9.050;2023-11-21T12:23:19;0.63;;;0.50;;
13234;SDS011;6683;48.506;9.050;2023-11-21T12:26:22;1.30;;;0.40;;
13234;SDS011;6683;48.506;9.050;2023-11-21T12:29:25;0.70;;;0.40;;
13234;SDS011;6683;48.506;9.050;2023-11-21T12:32:29;0.60;;;0.40;;
13234;SDS011;6683;48.506;9.050;2023-11-21T12:35:33;1.90;;;0.30;;
13234;SDS011;6683;48.506;9.050;2023-11-21T12:38:37;0.63;;;0.40;;
13234;SDS011;6683;48.506;9.050;2023-11-21T12:41:40;0.40;;;0.40;;
13234;SDS011;6683;48.506;9.050;2023-11-21T12:44:42;1.03;;;0.50;;
13234;SDS011;6683;48.506;9.050;2023-11-21T12:47:48;0.57;;;0.50;;
13234;SDS011;6683;48.506;9.050;2023-11-21T12:50:51;0.40;;;0.40;;
13234;SDS011;6683;48.506;9.050;2023-11-21T12:53:55;0.50;;;0.50;;
13234;SDS011;6683;48.506;9.050;2023-11-21T12:56:59;0.40;;;0.40;;
13234;SDS011;6683;48.506;9.050;2023-11-21T13:00:02;1.30;;;0.90;;
13234;SDS011;6683;48.506;9.050;2023-11-21T13:03:11;0.73;;;0.60;;
13234;SDS011;6683;48.506;9.050;2023-11-21T13:06:18;0.47;;;0.43;;
13234;SDS011;6683;48.506;9.050;2023-11-21T13:09:26;0.80;;;0.80;;
13234;SDS011;6683;48.506;9.050;2023-11-21T13:12:28;1.27;;;0.80;;
13234;SDS011;6683;48.506;9.050;2023-11-21T13:15:32;0.60;;;0.60;;
13234;SDS011;6683;48.506;9.050;2023-11-21T13:18:35;1.10;;;0.70;;
13234;SDS011;6683;48.506;9.050;2023-11-21T13:21:37;1.13;;;0.63;;
13234;SDS011;6683;48.506;9.050;2023-11-21T13:24:41;1.50;;;0.80;;
13234;SDS011;6683;48.506;9.050;2023-11-21T13:27:43;0.67;;;0.60;;
13234;SDS011;6683;48.506;9.050;2023-11-21T13:30:46;1.33;;;0.60;;
13234;SDS011;6683;48.506;9.050;2023-11-21T13:33:48;1.00;;;0.70;;
13234;SDS011;6683;48.506;9.050;2023-11-21T13:36:55;1.27;;;0.90;;
13234;SDS011;6683;48.506;9.050;2023-11-21T13:40:02;1.00;;;0.90;;
13234;SDS011;6683;48.506;9.050;2023-11-21T13:43:15;1.63;;;1.00;;
13234;SDS011;6683;48.506;9.050;2023-11-21T13:46:20;1.03;;;0.93;;
13234;SDS011;6683;48.506;9.050;2023-11-21T13:49:23;0.97;;;0.87;;
13234;SDS011;6683;48.506;9.050;2023-11-21T13:52:26;1.00;;;0.90;;
13234;SDS011;6683;48.506;9.050;2023-11-21T13:55:33;1.00;;;0.90;;
13234;SDS011;6683;48.506;9.050;2023-11-21T13:58:36;2.20;;;1.00;;
13234;SDS011;6683;48.506;9.050;2023-11-21T14:01:44;1.00;;;0.90;;
13234;SDS011;6683;48.506;9.050;2023-11-21T14:04:55;0.87;;;0.87;;
13234;SDS011;6683;48.506;9.050;2023-11-21T14:08:00;0.80;;;0.70;;
13234;SDS011;6683;48.506;9.050;2023-11-21T14:11:06;1.20;;;1.00;;
13234;SDS011;6683;48.506;9.050;2023-11-21T14:14:11;1.63;;;0.80;;
13234;SDS011;6683;48.506;9.050;2023-11-21T14:17:14;1.23;;;0.80;;
13234;SDS011;6683;48.506;9.050;2023-11-21T14:20:16;0.80;;;0.70;;
13234;SDS011;6683;48.506;9.050;2023-11-21T14:23:21;1.50;;;1.00;;
13234;SDS011;6683;48.506;9.050;2023-11-21T14:26:25;0.90;;;0.80;;
13234;SDS011;6683;48.506;9.050;2023-11-21T14:29:29;1.77;;;0.80;;
13234;SDS011;6683;48.506;9.050;2023-11-21T14:32:32;1.10;;;0.80;;
13234;SDS011;6683;48.506;9.050;2023-11-21T14:35:34;2.43;;;1.13;;
13234;SDS011;6683;48.506;9.050;2023-11-21T14:38:36;1.00;;;0.70;;
13234;SDS011;6683;48.506;9.050;2023-11-21T14:41:41;1.30;;;1.17;;
13234;SDS011;6683;48.506;9.050;2023-11-21T14:44:44;1.57;;;1.20;;
13234;SDS011;6683;48.506;9.050;2023-11-21T14:47:46;1.00;;;0.90;;
13234;SDS011;6683;48.506;9.050;2023-11-21T14:50:55;1.00;;;0.77;;
13234;SDS011;6683;48.506;9.050;2023-11-21T14:54:15;0.60;;;0.50;;
13234;SDS011;6683;48.506;9.050;2023-11-21T14:57:27;0.67;;;0.40;;
13234;SDS011;6683;48.506;9.050;2023-11-21T15:00:29;0.50;;;0.40;;
13234;SDS011;6683;48.506;9.050;2023-11-21T15:03:43;0.40;;;0.40;;
13234;SDS011;6683;48.506;9.050;2023-11-21T15:06:49;0.50;;;0.50;;
13234;SDS011;6683;48.506;9.050;2023-11-21T15:09:53;0.50;;;0.40;;
13234;SDS011;6683;48.506;9.050;2023-11-21T15:12:56;0.50;;;0.50;;
13234;SDS011;6683;48.506;9.050;2023-11-21T15:15:57;0.63;;;0.53;;
13234;SDS011;6683;48.506;9.050;2023-11-21T15:19:07;1.50;;;1.10;;
13234;SDS011;6683;48.506;9.050;2023-11-21T15:22:12;1.30;;;1.20;;
13234;SDS011;6683;48.506;9.050;2023-11-21T15:25:16;1.10;;;0.83;;
13234;SDS011;6683;48.506;9.050;2023-11-21T15:28:19;1.17;;;1.07;;
13234;SDS011;6683;48.506;9.050;2023-11-21T15:31:21;1.60;;;1.40;;
13234;SDS011;6683;48.506;9.050;2023-11-21T15:34:25;1.53;;;1.40;;
13234;SDS011;6683;48.506;9.050;2023-11-21T15:37:29;1.23;;;1.13;;
13234;SDS011;6683;48.506;9.050;2023-11-21T15:40:31;1.30;;;1.20;;
13234;SDS011;6683;48.506;9.050;2023-11-21T15:43:35;1.10;;;0.87;;
13234;SDS011;6683;48.506;9.050;2023-11-21T15:46:37;3.93;;;2.63;;
13234;SDS011;6683;48.506;9.050;2023-11-21T15:49:41;2.63;;;2.00;;
13234;SDS011;6683;48.506;9.050;2023-11-21T15:52:43;3.97;;;2.70;;
13234;SDS011;6683;48.506;9.050;2023-11-21T15:55:47;2.83;;;2.27;;
13234;SDS011;6683;48.506;9.050;2023-11-21T15:58:50;2.00;;;1.60;;
13234;SDS011;6683;48.506;9.050;2023-11-21T16:01:53;1.80;;;1.67;;
13234;SDS011;6683;48.506;9.050;2023-11-21T16:04:57;1.37;;;1.27;;
13234;SDS011;6683;48.506;9.050;2023-11-21T16:07:59;1.20;;;1.10;;
13234;SDS011;6683;48.506;9.050;2023-11-21T16:11:01;1.40;;;1.07;;
13234;SDS011;6683;48.506;9.050;2023-11-21T16:14:05;1.10;;;1.00;;
13234;SDS011;6683;48.506;9.050;2023-11-21T16:17:07;1.03;;;0.83;;
13234;SDS011;6683;48.506;9.050;2023-11-21T16:20:10;1.17;;;1.07;;
13234;SDS011;6683;48.506;9.050;2023-11-21T16:23:15;1.03;;;0.93;;
13234;SDS011;6683;48.506;9.050;2023-11-21T16:26:17;1.37;;;1.27;;
13234;SDS011;6683;48.506;9.050;2023-11-21T16:29:20;1.47;;;1.33;;
13234;SDS011;6683;48.506;9.050;2023-11-21T16:32:22;2.30;;;1.77;;
13234;SDS011;6683;48.506;9.050;2023-11-21T16:35:25;1.50;;;1.40;;
13234;SDS011;6683;48.506;9.050;2023-11-21T16:38:27;1.50;;;1.40;;
13234;SDS011;6683;48.506;9.050;2023-11-21T16:41:29;1.97;;;1.67;;
13234;SDS011;6683;48.506;9.050;2023-11-21T16:44:33;2.40;;;2.17;;
13234;SDS011;6683;48.506;9.050;2023-11-21T16:47:35;2.50;;;1.80;;
13234;SDS011;6683;48.506;9.050;2023-11-21T16:50:37;1.90;;;1.70;;
13234;SDS011;6683;48.506;9.050;2023-11-21T16:53:43;2.30;;;1.70;;
13234;SDS011;6683;48.506;9.050;2023-11-21T16:56:45;3.57;;;1.53;;
13234;SDS011;6683;48.506;9.050;2023-11-21T16:59:49;2.30;;;1.60;;
13234;SDS011;6683;48.506;9.050;2023-11-21T17:02:51;2.13;;;1.73;;
13234;SDS011;6683;48.506;9.050;2023-11-21T17:05:53;1.60;;;1.50;;
13234;SDS011;6683;48.506;9.050;2023-11-21T17:08:56;1.93;;;1.53;;
13234;SDS011;6683;48.506;9.050;2023-11-21T17:12:00;1.90;;;1.63;;
13234;SDS011;6683;48.506;9.050;2023-11-21T17:15:07;1.50;;;1.40;;
13234;SDS011;6683;48.506;9.050;2023-11-21T17:18:10;2.10;;;1.90;;
13234;SDS011;6683;48.506;9.050;2023-11-21T17:21:12;2.30;;;2.00;;
13234;SDS011;6683;48.506;9.050;2023-11-21T17:24:16;1.67;;;1.57;;
13234;SDS011;6683;48.506;9.050;2023-11-21T17:27:18;2.20;;;1.70;;
13234;SDS011;6683;48.506;9.050;2023-11-21T17:30:23;2.10;;;1.90;;
13234;SDS011;6683;48.506;9.050;2023-11-21T17:33:25;2.33;;;2.03;;
13234;SDS011;6683;48.506;9.050;2023-11-21T17:36:28;2.60;;;2.40;;
13234;SDS011;6683;48.506;9.050;2023-11-21T17:39:31;2.37;;;2.00;;
13234;SDS011;6683;48.506;9.050;2023-11-21T17:42:33;4.50;;;2.23;;
13234;SDS011;6683;48.506;9.050;2023-11-21T17:45:36;3.07;;;2.40;;
13234;SDS011;6683;48.506;9.050;2023-11-21T17:48:39;2.03;;;1.83;;
13234;SDS011;6683;48.506;9.050;2023-11-21T17:51:41;2.60;;;2.10;;
13234;SDS011;6683;48.506;9.050;2023-11-21T17:54:43;2.60;;;2.40;;
13234;SDS011;6683;48.506;9.050;2023-11-21T17:57:45;2.70;;;2.50;;
13234;SDS011;6683;48.506;9.050;2023-11-21T18:00:49;2.87;;;2.50;;
13234;SDS011;6683;48.506;9.050;2023-11-21T18:03:51;2.33;;;2.13;;
13234;SDS011;6683;48.506;9.050;2023-11-21T18:06:54;2.67;;;2.30;;
13234;SDS011;6683;48.506;9.050;2023-11-21T18:09:58;2.77;;;2.53;;
13234;SDS011;6683;48.506;9.050;2023-11-21T18:13:00;3.07;;;2.77;;
13234;SDS011;6683;48.506;9.050;2023-11-21T18:16:07;3.00;;;2.63;;
13234;SDS011;6683;48.506;9.050;2023-11-21T18:19:10;2.90;;;2.70;;
13234;SDS011;6683;48.506;9.050;2023-11-21T18:22:12;2.97;;;2.67;;
13234;SDS011;6683;48.506;9.050;2023-11-21T18:25:14;3.53;;;2.83;;
13234;SDS011;6683;48.506;9.050;2023-11-21T18:28:17;3.10;;;2.80;;
13234;SDS011;6683;48.506;9.050;2023-11-21T18:31:21;3.00;;;2.70;;
13234;SDS011;6683;48.506;9.050;2023-11-21T18:34:23;4.50;;;2.77;;
13234;SDS011;6683;48.506;9.050;2023-11-21T18:37:26;2.83;;;2.63;;
13234;SDS011;6683;48.506;9.050;2023-11-21T18:40:28;3.60;;;2.77;;
13234;SDS011;6683;48.506;9.050;2023-11-21T18:43:30;3.73;;;2.80;;
13234;SDS011;6683;48.506;9.050;2023-11-21T18:46:36;2.70;;;2.50;;